createdAt,value
2023-04-08T00:01:11.366Z,9.48
2023-04-08T00:03:40.668Z,12.25
2023-04-08T00:06:08.575Z,10.38
2023-04-08T00:08:38.521Z,13.73
2023-04-08T00:11:06.586Z,11.93
2023-04-08T00:13:34.114Z,11.82
2023-04-08T00:16:01.727Z,9.73
2023-04-08T00:18:29.804Z,12.10
2023-04-08T00:20:57.580Z,14.00
2023-04-08T00:23:25.115Z,10.93
2023-04-08T00:25:52.664Z,14.63
2023-04-08T00:28:20.114Z,14.45
2023-04-08T00:30:47.632Z,13.48
2023-04-08T00:33:15.488Z,11.60
2023-04-08T00:35:42.975Z,12.48
2023-04-08T00:38:10.745Z,13.05
2023-04-08T00:40:38.298Z,10.15
2023-04-08T00:43:05.733Z,11.32
2023-04-08T00:45:35.519Z,9.93
2023-04-08T00:48:06.267Z,7.57
2023-04-08T00:50:33.920Z,7.00
2023-04-08T00:53:01.540Z,11.32
2023-04-08T00:55:29.178Z,9.38
2023-04-08T00:57:57.556Z,12.80
2023-04-08T01:00:25.416Z,7.38
2023-04-08T01:03:11.378Z,13.18
2023-04-08T01:05:54.251Z,9.18
2023-04-08T01:08:23.770Z,7.30
2023-04-08T01:10:54.435Z,11.20
2023-04-08T01:13:26.691Z,9.45
2023-04-08T01:15:55.774Z,6.80
2023-04-08T01:18:25.206Z,7.65
2023-04-08T01:20:54.831Z,9.02
2023-04-08T01:23:36.626Z,7.05
2023-04-08T01:26:04.487Z,6.85
2023-04-08T01:28:34.002Z,7.07
2023-04-08T01:31:02.493Z,9.48
2023-04-08T01:33:31.886Z,8.10
2023-04-08T01:36:00.548Z,11.52
2023-04-08T01:38:29.593Z,12.77
2023-04-08T01:41:00.835Z,7.57
2023-04-08T01:43:29.022Z,10.98
2023-04-08T01:45:58.794Z,9.32
2023-04-08T01:48:27.461Z,13.40
2023-04-08T01:50:59.784Z,13.05
2023-04-08T01:53:27.258Z,11.07
2023-04-08T01:56:02.035Z,11.75
2023-04-08T01:58:37.673Z,12.88
2023-04-08T02:01:11.765Z,9.80
2023-04-08T02:03:43.562Z,13.10
2023-04-08T02:06:11.294Z,12.27
2023-04-08T02:08:38.880Z,13.65
2023-04-08T02:11:09.235Z,16.17
2023-04-08T02:13:36.862Z,13.57
2023-04-08T02:16:40.176Z,12.68
2023-04-08T02:22:07.035Z,17.83
2023-04-08T02:24:36.294Z,13.40
2023-04-08T02:27:04.697Z,15.35
2023-04-08T02:29:34.728Z,15.32
2023-04-08T02:32:04.398Z,15.10
2023-04-08T02:34:32.935Z,17.38
2023-04-08T02:37:00.585Z,12.27
2023-04-08T02:39:33.920Z,12.00
2023-04-08T02:42:01.699Z,13.73
2023-04-08T02:44:29.168Z,12.07
2023-04-08T02:46:56.840Z,11.88
2023-04-08T02:49:24.291Z,13.80
2023-04-08T02:51:51.771Z,12.90
2023-04-08T02:54:19.286Z,9.38
2023-04-08T02:56:46.710Z,14.80
2023-04-08T02:59:14.452Z,14.15
2023-04-08T03:01:42.027Z,14.93
2023-04-08T03:04:09.470Z,16.92
2023-04-08T03:06:36.925Z,14.20
2023-04-08T03:09:06.118Z,12.55
2023-04-08T03:11:33.666Z,14.30
2023-04-08T03:14:01.362Z,15.23
2023-04-08T03:16:28.899Z,17.00
2023-04-08T03:18:56.723Z,13.23
2023-04-08T03:21:24.903Z,11.82
2023-04-08T03:23:52.388Z,15.95
2023-04-08T03:26:19.875Z,18.20
2023-04-08T03:28:47.889Z,16.60
2023-04-08T03:31:15.724Z,16.60
2023-04-08T03:33:43.163Z,15.40
2023-04-08T03:36:10.738Z,11.60
2023-04-08T03:38:38.406Z,11.75
2023-04-08T03:41:05.959Z,15.95
2023-04-08T03:43:33.415Z,15.35
2023-04-08T03:46:00.882Z,15.05
2023-04-08T03:48:28.952Z,11.90
2023-04-08T03:50:56.492Z,13.75
2023-04-08T03:53:24.270Z,14.07
2023-04-08T03:55:51.734Z,19.00
2023-04-08T03:58:19.301Z,12.52
2023-04-08T04:00:46.747Z,16.55
2023-04-08T04:03:15.093Z,11.98
2023-04-08T04:05:42.795Z,10.13
2023-04-08T04:08:10.374Z,14.95
2023-04-08T04:10:37.874Z,16.92
2023-04-08T04:13:06.054Z,12.05
2023-04-08T04:15:33.576Z,10.57
2023-04-08T04:18:04.219Z,11.27
2023-04-08T04:20:31.945Z,13.20
2023-04-08T04:22:59.401Z,15.15
2023-04-08T04:25:26.919Z,13.95
2023-04-08T04:27:54.525Z,19.67
2023-04-08T04:30:22.086Z,9.35
2023-04-08T04:32:49.690Z,13.57
2023-04-08T04:35:17.188Z,11.77
2023-04-08T04:37:44.735Z,10.65
2023-04-08T04:40:12.366Z,11.52
2023-04-08T04:42:39.896Z,12.63
2023-04-08T04:45:08.004Z,12.65
2023-04-08T04:47:35.621Z,12.05
2023-04-08T04:50:03.208Z,14.93
2023-04-08T04:52:31.046Z,14.75
2023-04-08T04:54:59.294Z,12.25
2023-04-08T04:57:26.898Z,12.98
2023-04-08T04:59:54.433Z,13.07
2023-04-08T05:02:22.044Z,10.95
2023-04-08T05:04:49.693Z,17.42
2023-04-08T05:07:17.153Z,19.73
2023-04-08T05:09:44.597Z,13.73
2023-04-08T05:12:12.850Z,18.15
2023-04-08T05:14:41.505Z,34.05
2023-04-08T05:17:08.993Z,13.43
2023-04-08T05:19:36.428Z,14.05
2023-04-08T05:22:04.076Z,15.93
2023-04-08T05:24:31.600Z,11.90
2023-04-08T05:26:59.109Z,18.55
2023-04-08T05:29:26.643Z,18.02
2023-04-08T05:31:56.682Z,14.57
2023-04-08T05:34:24.524Z,22.60
2023-04-08T05:36:52.270Z,12.43
2023-04-08T05:39:20.541Z,9.38
2023-04-08T05:41:48.181Z,13.85
2023-04-08T05:44:15.806Z,11.63
2023-04-08T05:46:43.348Z,15.82
2023-04-08T05:49:10.924Z,7.43
2023-04-08T05:51:39.272Z,10.05
2023-04-08T05:54:06.954Z,11.95
2023-04-08T05:56:35.166Z,15.82
2023-04-08T05:59:02.701Z,13.98
2023-04-08T06:01:30.189Z,13.15
2023-04-08T06:03:57.904Z,8.98
2023-04-08T06:06:28.312Z,10.60
2023-04-08T06:08:56.305Z,13.73
2023-04-08T06:11:23.900Z,12.13
2023-04-08T06:13:51.303Z,11.52
2023-04-08T06:16:20.946Z,16.45
2023-04-08T06:18:51.754Z,15.90
2023-04-08T06:21:19.765Z,20.67
2023-04-08T06:23:47.230Z,15.48
2023-04-08T06:26:14.693Z,12.95
2023-04-08T06:28:42.149Z,12.80
2023-04-08T06:31:09.755Z,23.65
2023-04-08T06:33:37.185Z,17.90
2023-04-08T06:36:05.964Z,12.00
2023-04-08T06:38:34.031Z,14.10
2023-04-08T06:41:05.942Z,12.27
2023-04-08T06:43:34.449Z,11.73
2023-04-08T06:46:02.032Z,15.23
2023-04-08T06:48:30.992Z,14.60
2023-04-08T06:51:03.034Z,17.13
2023-04-08T06:53:31.485Z,14.98
2023-04-08T06:56:01.669Z,15.52
2023-04-08T06:58:30.074Z,14.82
2023-04-08T07:00:57.653Z,15.75
2023-04-08T07:03:25.252Z,12.60
2023-04-08T07:05:53.900Z,20.45
2023-04-08T07:08:21.490Z,15.98
2023-04-08T07:10:49.311Z,21.75
2023-04-08T07:13:17.665Z,20.50
2023-04-08T07:15:45.285Z,17.65
2023-04-08T07:18:14.020Z,25.02
2023-04-08T07:20:42.268Z,15.10
2023-04-08T07:23:09.788Z,17.40
2023-04-08T07:25:37.328Z,17.80
2023-04-08T07:28:04.861Z,22.27
2023-04-08T07:30:32.575Z,27.75
2023-04-08T07:33:00.950Z,24.55
2023-04-08T07:35:29.341Z,22.67
2023-04-08T07:37:57.984Z,31.83
2023-04-08T07:40:25.598Z,20.83
2023-04-08T07:42:53.352Z,30.08
2023-04-08T07:45:21.016Z,26.63
2023-04-08T07:47:48.821Z,20.58
2023-04-08T07:50:16.580Z,23.75
2023-04-08T07:52:44.037Z,27.38
2023-04-08T07:55:11.574Z,29.05
2023-04-08T07:57:40.093Z,31.45
2023-04-08T08:00:08.813Z,26.45
2023-04-08T08:02:36.364Z,29.67
2023-04-08T08:05:04.120Z,23.27
2023-04-08T08:07:31.685Z,22.80
2023-04-08T08:09:59.163Z,21.13
2023-04-08T08:12:29.700Z,27.15
2023-04-08T08:14:59.286Z,25.98
2023-04-08T08:17:30.356Z,23.55
2023-04-08T08:19:58.035Z,24.13
2023-04-08T08:22:25.789Z,27.80
2023-04-08T08:24:59.705Z,22.13
2023-04-08T08:27:27.309Z,22.55
2023-04-08T08:29:54.841Z,25.50
2023-04-08T08:32:22.301Z,22.90
2023-04-08T08:34:49.761Z,21.85
2023-04-08T08:37:17.332Z,20.02
2023-04-08T08:39:44.809Z,18.90
2023-04-08T08:42:26.274Z,19.65
2023-04-08T08:44:54.822Z,14.55
2023-04-08T08:47:25.051Z,16.50
2023-04-08T08:49:52.714Z,12.13
2023-04-08T08:52:20.372Z,9.50
2023-04-08T08:54:47.960Z,9.10
2023-04-08T08:57:21.604Z,9.15
2023-04-08T08:59:49.692Z,7.05
2023-04-08T09:02:32.301Z,7.20
2023-04-08T09:05:04.368Z,13.18
2023-04-08T09:07:35.999Z,7.77
2023-04-08T09:10:04.472Z,6.82
2023-04-08T09:12:32.059Z,5.10
2023-04-08T09:15:13.009Z,8.73
2023-04-08T09:17:41.789Z,10.00
2023-04-08T09:20:13.907Z,12.07
2023-04-08T09:23:01.693Z,5.72
2023-04-08T09:25:34.110Z,10.38
2023-04-08T09:28:03.467Z,7.57
2023-04-08T09:30:33.251Z,6.82
2023-04-08T09:33:01.717Z,6.97
2023-04-08T09:35:29.305Z,12.27
2023-04-08T09:37:56.901Z,12.50
2023-04-08T09:40:28.821Z,10.73
2023-04-08T09:43:01.662Z,8.30
2023-04-08T09:48:05.344Z,9.02
2023-04-08T09:50:36.206Z,9.90
2023-04-08T09:53:35.456Z,8.23
2023-04-08T09:56:08.619Z,6.18
2023-04-08T09:58:52.563Z,12.13
2023-04-08T10:01:27.227Z,9.63
2023-04-08T10:03:57.576Z,7.30
2023-04-08T10:06:29.912Z,10.23
2023-04-08T10:08:58.434Z,8.07
2023-04-08T10:11:26.076Z,7.35
2023-04-08T10:13:53.979Z,7.13
2023-04-08T10:16:28.699Z,9.18
2023-04-08T10:18:57.454Z,7.55
2023-04-08T10:21:48.327Z,5.22
2023-04-08T10:24:15.835Z,9.85
2023-04-08T10:26:45.221Z,10.27
2023-04-08T10:29:18.654Z,8.93
2023-04-08T10:31:47.195Z,7.22
2023-04-08T10:34:18.921Z,6.10
2023-04-08T10:36:47.628Z,7.30
2023-04-08T10:39:18.240Z,7.72
2023-04-08T10:41:51.676Z,9.10
2023-04-08T10:44:24.708Z,9.32
2023-04-08T10:46:53.288Z,7.03
2023-04-08T10:49:22.832Z,6.63
2023-04-08T10:51:50.551Z,6.65
2023-04-08T10:54:19.272Z,5.60
2023-04-08T10:56:51.440Z,7.57
2023-04-08T10:59:29.638Z,7.78
2023-04-08T11:01:57.657Z,5.85
2023-04-08T11:04:26.060Z,7.50
2023-04-08T11:06:54.062Z,5.57
2023-04-08T11:09:21.726Z,7.97
2023-04-08T11:11:49.338Z,12.60
2023-04-08T11:14:19.939Z,5.32
2023-04-08T11:16:47.689Z,10.75
2023-04-08T11:19:15.658Z,6.95
2023-04-08T11:21:43.312Z,9.52
2023-04-08T11:24:16.861Z,11.98
2023-04-08T11:26:44.794Z,10.30
2023-04-08T11:29:14.604Z,10.57
2023-04-08T11:31:44.241Z,7.03
2023-04-08T11:34:12.479Z,6.68
2023-04-08T11:36:41.971Z,6.13
2023-04-08T11:39:12.561Z,9.88
2023-04-08T11:41:40.912Z,11.00
2023-04-08T11:44:09.143Z,5.60
2023-04-08T11:46:38.214Z,6.38
2023-04-08T11:49:08.230Z,6.20
2023-04-08T11:51:55.302Z,7.35
2023-04-08T11:54:33.478Z,5.85
2023-04-08T11:57:01.435Z,9.43
2023-04-08T11:59:31.571Z,8.57
2023-04-08T12:01:59.509Z,9.60
2023-04-08T12:04:30.333Z,7.18
2023-04-08T12:06:58.581Z,8.30
2023-04-08T12:09:26.529Z,7.38
2023-04-08T12:11:53.974Z,11.05
2023-04-08T12:14:26.204Z,8.80
2023-04-08T12:16:55.153Z,9.05
2023-04-08T12:19:22.764Z,7.50
2023-04-08T12:21:50.236Z,14.75
2023-04-08T12:24:17.688Z,10.88
2023-04-08T12:26:45.162Z,14.23
2023-04-08T12:29:12.832Z,9.68
2023-04-08T12:31:40.851Z,11.30
2023-04-08T12:34:11.538Z,7.07
2023-04-08T12:36:40.543Z,7.65
2023-04-08T12:39:09.322Z,6.13
2023-04-08T12:41:37.022Z,7.70
2023-04-08T12:44:04.597Z,9.70
2023-04-08T12:46:32.452Z,5.72
2023-04-08T12:49:04.924Z,8.60
2023-04-08T12:51:33.694Z,8.18
2023-04-08T12:54:01.545Z,4.97
2023-04-08T12:56:33.140Z,6.97
2023-04-08T12:59:01.573Z,8.27
2023-04-08T13:01:29.403Z,6.43
2023-04-08T13:03:57.460Z,7.75
2023-04-08T13:06:25.019Z,8.93
2023-04-08T13:08:53.157Z,13.93
2023-04-08T13:11:21.711Z,11.52
2023-04-08T13:13:49.653Z,11.35
2023-04-08T13:16:20.764Z,7.15
2023-04-08T13:18:48.650Z,14.75
2023-04-08T13:21:16.218Z,7.95
2023-04-08T13:23:43.804Z,7.88
2023-04-08T13:26:11.496Z,10.27
2023-04-08T13:28:53.885Z,7.18
2023-04-08T13:31:24.689Z,9.10
2023-04-08T13:33:53.274Z,6.82
2023-04-08T13:36:22.076Z,13.23
2023-04-08T13:38:49.828Z,6.75
2023-04-08T13:41:17.859Z,15.77
2023-04-08T13:43:45.301Z,7.93
2023-04-08T13:46:12.847Z,10.10
2023-04-08T13:48:40.408Z,8.52
2023-04-08T13:51:07.920Z,6.20
2023-04-08T13:53:35.391Z,11.45
2023-04-08T13:56:02.838Z,11.52
2023-04-08T13:58:32.952Z,9.60
2023-04-08T14:01:00.609Z,9.38
2023-04-08T14:03:30.804Z,5.68
2023-04-08T14:06:01.582Z,4.45
2023-04-08T14:08:29.521Z,5.20
2023-04-08T14:10:57.945Z,7.78
2023-04-08T14:13:25.870Z,13.02
2023-04-08T14:15:55.312Z,8.52
2023-04-08T14:18:22.935Z,4.82
2023-04-08T14:20:51.127Z,7.47
2023-04-08T14:23:18.621Z,6.82
2023-04-08T14:25:46.096Z,9.43
2023-04-08T14:28:13.711Z,10.55
2023-04-08T14:30:42.018Z,7.20
2023-04-08T14:33:09.537Z,5.50
2023-04-08T14:35:37.149Z,8.05
2023-04-08T14:38:07.706Z,12.75
2023-04-08T14:40:37.603Z,6.63
2023-04-08T14:43:05.403Z,8.25
2023-04-08T14:45:33.451Z,10.25
2023-04-08T14:48:01.041Z,7.57
2023-04-08T14:50:28.848Z,5.53
2023-04-08T14:52:56.304Z,9.82
2023-04-08T14:55:23.961Z,6.85
2023-04-08T14:57:51.625Z,7.90
2023-04-08T15:00:19.178Z,8.38
2023-04-08T15:02:46.684Z,6.93
2023-04-08T15:05:14.449Z,6.63
2023-04-08T15:07:43.125Z,9.60
2023-04-08T15:10:11.113Z,10.13
2023-04-08T15:12:39.722Z,10.77
2023-04-08T15:15:07.877Z,12.95
2023-04-08T15:17:35.406Z,9.18
2023-04-08T15:20:03.023Z,14.85
2023-04-08T15:22:30.537Z,14.48
2023-04-08T15:24:58.045Z,14.45
2023-04-08T15:27:25.517Z,9.70
2023-04-08T15:29:53.159Z,14.23
2023-04-08T15:32:20.941Z,11.15
2023-04-08T15:34:48.664Z,9.45
2023-04-08T15:37:16.235Z,9.40
2023-04-08T15:39:43.802Z,8.85
2023-04-08T15:42:11.543Z,10.30
2023-04-08T15:44:39.037Z,11.02
2023-04-08T15:47:06.530Z,8.38
2023-04-08T15:49:34.176Z,11.55
2023-04-08T15:52:01.784Z,11.77
2023-04-08T15:54:31.040Z,8.63
2023-04-08T15:56:58.713Z,10.48
2023-04-08T15:59:30.647Z,10.02
2023-04-08T16:01:58.478Z,9.80
2023-04-08T16:04:26.048Z,10.80
2023-04-08T16:06:53.622Z,10.80
2023-04-08T16:09:25.850Z,9.23
2023-04-08T16:11:54.012Z,10.23
2023-04-08T16:14:23.391Z,14.13
2023-04-08T16:16:51.596Z,17.92
2023-04-08T16:19:19.107Z,16.45
2023-04-08T16:21:46.796Z,14.70
2023-04-08T16:24:14.624Z,17.08
2023-04-08T16:26:42.143Z,19.83
2023-04-08T16:29:09.715Z,12.68
2023-04-08T16:31:37.543Z,19.10
2023-04-08T16:34:05.336Z,22.20
2023-04-08T16:36:32.873Z,14.20
2023-04-08T16:39:00.391Z,15.60
2023-04-08T16:41:27.862Z,19.98
2023-04-08T16:43:55.403Z,18.30
2023-04-08T16:46:23.179Z,15.73
2023-04-08T16:48:50.832Z,18.52
2023-04-08T16:51:19.016Z,16.33
2023-04-08T16:53:46.449Z,20.65
2023-04-08T16:56:15.996Z,16.15
2023-04-08T16:58:44.137Z,24.20
2023-04-08T17:01:14.341Z,16.95
2023-04-08T17:03:42.310Z,18.15
2023-04-08T17:06:12.309Z,15.18
2023-04-08T17:08:43.618Z,21.10
2023-04-08T17:11:13.720Z,16.85
2023-04-08T17:13:43.408Z,14.82
2023-04-08T17:16:15.914Z,14.88
2023-04-08T17:18:44.841Z,15.25
2023-04-08T17:21:18.145Z,17.42
2023-04-08T17:23:45.643Z,18.45
2023-04-08T17:26:13.263Z,18.70
2023-04-08T17:28:40.879Z,17.70
2023-04-08T17:31:08.446Z,25.52
2023-04-08T17:33:36.240Z,18.45
2023-04-08T17:36:03.948Z,23.60
2023-04-08T17:38:32.424Z,20.75
2023-04-08T17:40:59.947Z,23.17
2023-04-08T17:43:27.659Z,19.63
2023-04-08T17:46:02.093Z,18.83
2023-04-08T17:48:30.756Z,19.92
2023-04-08T17:51:02.933Z,23.02
2023-04-08T17:53:32.295Z,18.80
2023-04-08T17:56:00.681Z,20.65
2023-04-08T17:58:28.876Z,23.42
2023-04-08T18:00:56.629Z,22.20
2023-04-08T18:03:24.478Z,22.10
2023-04-08T18:05:52.113Z,21.92
2023-04-08T18:08:20.512Z,24.42
2023-04-08T18:10:48.189Z,22.25
2023-04-08T18:13:15.691Z,19.30
2023-04-08T18:15:43.168Z,21.90
2023-04-08T18:18:10.942Z,23.38
2023-04-08T18:20:38.466Z,24.98
2023-04-08T18:23:06.068Z,20.48
2023-04-08T18:25:34.735Z,22.80
2023-04-08T18:28:02.217Z,25.33
2023-04-08T18:30:30.557Z,21.63
2023-04-08T18:32:58.166Z,20.15
2023-04-08T18:35:26.076Z,18.73
2023-04-08T18:37:53.535Z,25.20
2023-04-08T18:40:21.157Z,16.75
2023-04-08T18:42:48.647Z,21.67
2023-04-08T18:45:16.292Z,15.50
2023-04-08T18:47:43.992Z,17.58
2023-04-08T18:50:11.641Z,16.48
2023-04-08T18:52:39.252Z,16.58
2023-04-08T18:55:07.013Z,22.00
2023-04-08T18:57:34.749Z,18.55
2023-04-08T19:00:02.289Z,15.85
2023-04-08T19:02:30.947Z,14.32
2023-04-08T19:04:58.689Z,20.73
2023-04-08T19:07:27.591Z,18.48
2023-04-08T19:09:58.781Z,20.48
2023-04-08T19:12:26.977Z,20.48
2023-04-08T19:14:54.893Z,20.05
2023-04-08T19:17:22.423Z,18.48
2023-04-08T19:19:49.913Z,16.80
2023-04-08T19:22:17.837Z,22.42
2023-04-08T19:24:45.301Z,21.80
2023-04-08T19:27:14.637Z,20.40
2023-04-08T19:29:42.380Z,19.20
2023-04-08T19:32:10.085Z,18.23
2023-04-08T19:34:38.780Z,18.55
2023-04-08T19:37:07.424Z,17.92
2023-04-08T19:39:35.052Z,22.77
2023-04-08T19:42:02.788Z,16.98
2023-04-08T19:44:30.243Z,19.17
2023-04-08T19:46:58.027Z,16.77
2023-04-08T19:49:25.888Z,20.08
2023-04-08T19:51:53.861Z,20.75
2023-04-08T19:54:22.226Z,16.05
2023-04-08T19:56:49.841Z,18.52
2023-04-08T19:59:17.312Z,20.30
2023-04-08T20:01:45.110Z,15.57
2023-04-08T20:04:12.785Z,16.17
2023-04-08T20:06:40.529Z,22.77
2023-04-08T20:09:08.063Z,19.30
2023-04-08T20:11:35.645Z,18.77
2023-04-08T20:14:04.228Z,24.80
2023-04-08T20:16:32.246Z,25.10
2023-04-08T20:18:59.916Z,21.58
2023-04-08T20:21:28.043Z,22.58
2023-04-08T20:23:55.987Z,27.70
2023-04-08T20:26:23.502Z,18.10
2023-04-08T20:28:51.433Z,23.23
2023-04-08T20:31:19.871Z,17.75
2023-04-08T20:33:47.348Z,19.95
2023-04-08T20:36:14.926Z,19.10
2023-04-08T20:38:42.878Z,16.77
2023-04-08T20:41:10.591Z,17.63
2023-04-08T20:43:39.589Z,19.33
2023-04-08T20:46:07.700Z,20.58
2023-04-08T20:48:36.295Z,19.13
2023-04-08T20:51:04.125Z,18.90
2023-04-08T20:53:31.697Z,17.52
2023-04-08T20:56:02.237Z,26.42
2023-04-08T20:58:31.014Z,20.13
2023-04-08T21:00:59.605Z,23.15
2023-04-08T21:03:28.145Z,18.35
2023-04-08T21:05:56.453Z,15.52
2023-04-08T21:08:24.013Z,15.77
2023-04-08T21:10:51.617Z,16.63
2023-04-08T21:13:20.647Z,14.57
2023-04-08T21:15:48.145Z,15.55
2023-04-08T21:18:15.709Z,15.88
2023-04-08T21:20:43.297Z,16.45
2023-04-08T21:23:10.846Z,16.38
2023-04-08T21:25:38.455Z,21.80
2023-04-08T21:28:06.008Z,14.98
2023-04-08T21:30:33.533Z,14.38
2023-04-08T21:33:03.183Z,14.45
2023-04-08T21:35:30.920Z,17.98
2023-04-08T21:37:58.493Z,16.60
2023-04-08T21:40:26.294Z,16.00
2023-04-08T21:42:53.853Z,16.38
2023-04-08T21:45:21.902Z,16.38
2023-04-08T21:47:50.937Z,17.98
2023-04-08T21:50:19.128Z,15.50
2023-04-08T21:52:46.599Z,15.32
2023-04-08T21:55:14.243Z,14.68
2023-04-08T21:57:42.837Z,14.40
2023-04-08T22:00:13.938Z,15.95
2023-04-08T22:02:41.572Z,16.40
2023-04-08T22:05:09.913Z,13.95
2023-04-08T22:07:38.045Z,15.57
2023-04-08T22:10:07.269Z,16.38
2023-04-08T22:12:34.890Z,17.52
2023-04-08T22:15:02.665Z,16.95
2023-04-08T22:17:30.203Z,13.07
2023-04-08T22:19:57.920Z,15.50
2023-04-08T22:22:25.578Z,17.35
2023-04-08T22:24:53.131Z,17.50
2023-04-08T22:27:20.627Z,17.92
2023-04-08T22:29:48.186Z,13.65
2023-04-08T22:32:15.817Z,15.13
2023-04-08T22:34:43.320Z,18.00
2023-04-08T22:37:10.935Z,16.58
2023-04-08T22:39:41.554Z,15.00
2023-04-08T22:42:09.078Z,23.98
2023-04-08T22:44:36.597Z,15.30
2023-04-08T22:47:04.040Z,18.23
2023-04-08T22:49:31.615Z,16.35
2023-04-08T22:51:59.110Z,15.85
2023-04-08T22:54:26.810Z,14.15
2023-04-08T22:56:54.250Z,26.30
2023-04-08T22:59:21.780Z,14.32
2023-04-08T23:01:49.437Z,16.50
2023-04-08T23:04:17.125Z,16.25
2023-04-08T23:06:44.764Z,15.43
2023-04-08T23:09:13.255Z,18.67
2023-04-08T23:11:40.720Z,14.75
2023-04-08T23:14:08.174Z,16.00
2023-04-08T23:16:36.070Z,15.00
2023-04-08T23:19:03.609Z,16.60
2023-04-08T23:21:31.410Z,18.77
2023-04-08T23:23:58.932Z,14.75
2023-04-08T23:26:27.066Z,15.77
2023-04-08T23:28:54.763Z,14.27
2023-04-08T23:31:22.413Z,15.23
2023-04-08T23:33:50.147Z,19.35
2023-04-08T23:36:17.657Z,17.98
2023-04-08T23:38:45.169Z,14.25
2023-04-08T23:41:12.890Z,16.33
2023-04-08T23:43:40.535Z,14.50
2023-04-08T23:46:08.004Z,14.07
2023-04-08T23:48:35.511Z,19.40
2023-04-08T23:51:03.017Z,16.40
2023-04-08T23:53:30.680Z,13.15
2023-04-08T23:56:08.767Z,14.20
2023-04-08T23:58:36.918Z,16.67
